Time;durP1;ratioP1;P1;durP2;ratioP2;P2;SDS_P1;SDS_P2;PMS_P1;PMS_P2;Temp;Humidity;BMP_temperature;BMP_pressure;BME280_temperature;BME280_humidity;BME280_pressure;Samples;Min_cycle;Max_cycle;Signal;HPM_P1;HPM_P2
2022/08/22 00:02:36;;;;;;;103.32;13.03;;;;;;;21.68;50.21;99533.20;1792443;80;21220;-79
2022/08/22 00:05:53;;;;;;;105.70;10.35;;;;;;;21.60;50.16;99537.34;1792343;80;21177;-77
2022/08/22 00:09:05;;;;;;;105.63;10.05;;;;;;;21.60;49.95;99526.77;1791254;80;21882;-78
2022/08/22 00:12:30;;;;;;;104.53;11.03;;;;;;;21.53;50.34;99532.55;1791098;80;21201;-78
2022/08/22 00:15:45;;;;;;;71.37;9.10;;;;;;;21.45;50.12;99530.25;1790617;80;21744;-78
2022/08/22 00:19:02;;;;;;;115.70;12.50;;;;;;;21.44;50.15;99532.20;1790781;80;21192;-78
2022/08/22 00:22:17;;;;;;;110.32;13.83;;;;;;;21.47;50.17;99535.58;1792108;80;21177;-78
2022/08/22 00:25:38;;;;;;;101.85;12.82;;;;;;;21.47;49.63;99539.75;1792343;80;21157;-78
2022/08/22 00:28:52;;;;;;;117.97;12.63;;;;;;;21.34;49.92;99534.91;1792193;80;21180;-78
2022/08/22 00:32:20;;;;;;;112.75;10.80;;;;;;;21.32;50.28;99538.52;1792316;80;21190;-78
2022/08/22 00:35:45;;;;;;;107.97;12.70;;;;;;;21.23;50.87;99541.47;1792247;80;21178;-78
2022/08/22 00:38:56;;;;;;;114.60;12.75;;;;;;;21.30;50.86;99546.24;1791625;80;21245;-78
2022/08/22 00:42:47;;;;;;;102.27;13.15;;;;;;;21.33;50.54;99545.75;1792233;80;21174;-77
2022/08/22 00:46:20;;;;;;;123.62;12.33;;;;;;;21.30;50.66;99546.24;1695789;80;21207;-77
2022/08/22 00:49:56;;;;;;;103.65;13.75;;;;;;;21.28;50.83;99547.62;1792505;80;21843;-78
2022/08/22 00:53:49;;;;;;;99.92;13.38;;;;;;;21.26;50.83;99545.09;1792018;80;21169;-78
2022/08/22 00:57:45;;;;;;;121.95;12.07;;;;;;;21.22;50.95;99550.05;1792185;80;21724;-77
2022/08/22 01:00:56;;;;;;;133.95;14.38;;;;;;;21.11;51.03;99550.52;1792232;80;21186;-78
2022/08/22 01:04:19;;;;;;;109.67;12.43;;;;;;;21.01;51.17;99553.21;1790744;80;21213;-78
2022/08/22 01:08:16;;;;;;;137.88;14.40;;;;;;;21.09;50.76;99558.30;1792102;80;21177;-78
2022/08/22 01:11:51;;;;;;;113.28;12.20;;;;;;;21.14;50.74;99555.02;1754305;80;21763;-78
2022/08/22 01:15:12;;;;;;;136.22;15.55;;;;;;;21.07;50.95;99551.59;1790787;80;21177;-78
2022/08/22 01:19:07;;;;;;;131.78;13.55;;;;;;;21.05;51.06;99559.37;1792423;80;21162;-78
2022/08/22 01:22:47;;;;;;;105.70;13.83;;;;;;;20.96;51.25;99551.22;1792136;80;21179;-78
2022/08/22 01:26:23;;;;;;;143.35;16.55;;;;;;;20.94;51.00;99560.39;1790787;80;21210;-78
2022/08/22 01:29:50;;;;;;;146.02;16.40;;;;;;;20.87;51.47;99559.74;1792134;80;21177;-78
2022/08/22 01:33:23;;;;;;;131.35;15.93;;;;;;;20.85;51.15;99559.17;1763393;80;21872;-78
2022/08/22 01:36:56;;;;;;;114.60;13.03;;;;;;;20.89;51.03;99552.83;1792454;80;21221;-78
2022/08/22 01:40:44;;;;;;;127.75;14.35;;;;;;;20.65;51.27;99560.64;1791479;80;21209;-78
2022/08/22 01:44:15;;;;;;;126.58;14.35;;;;;;;20.68;50.85;99562.88;1792035;80;21213;-77
2022/08/22 01:47:32;;;;;;;134.55;15.25;;;;;;;20.77;50.86;99563.80;1792368;80;21162;-77
2022/08/22 01:51:04;;;;;;;144.00;15.85;;;;;;;20.89;50.97;99553.39;1790746;80;21843;-79
2022/08/22 01:54:38;;;;;;;142.93;16.87;;;;;;;20.82;51.60;99556.36;1791555;80;21157;-79
2022/08/22 01:58:04;;;;;;;141.18;15.00;;;;;;;20.79;51.66;99561.59;1792222;80;21253;-78
2022/08/22 02:01:38;;;;;;;139.57;14.70;;;;;;;20.58;51.80;99563.31;1792155;80;21182;-78
2022/08/22 02:04:49;;;;;;;150.53;17.90;;;;;;;20.60;51.49;99566.11;1791452;80;21256;-78
2022/08/22 02:08:10;;;;;;;161.25;16.87;;;;;;;20.63;51.18;99563.38;1792291;80;21166;-77
2022/08/22 02:11:38;;;;;;;134.65;15.58;;;;;;;20.62;51.01;99559.76;1791031;80;21256;-78
2022/08/22 02:14:50;;;;;;;146.68;15.58;;;;;;;20.64;51.01;99564.48;1794397;80;21236;-78
2022/08/22 02:18:17;;;;;;;125.72;14.95;;;;;;;20.66;50.71;99562.31;1798067;80;21177;-78
2022/08/22 02:21:30;;;;;;;122.50;17.25;;;;;;;20.63;50.65;99565.59;1797840;80;21280;-78
2022/08/22 02:25:15;;;;;;;136.57;15.78;;;;;;;20.55;50.62;99565.21;1797166;80;21870;-78
2022/08/22 02:28:42;;;;;;;87.45;14.25;;;;;;;20.60;50.48;99568.88;1797969;80;21183;-78
2022/08/22 02:32:07;;;;;;;126.58;12.68;;;;;;;20.57;50.35;99569.98;1797923;80;21819;-78
2022/08/22 02:35:29;;;;;;;139.43;15.45;;;;;;;20.62;50.03;99570.88;1797335;80;21153;-78
2022/08/22 02:39:03;;;;;;;120.20;14.85;;;;;;;20.60;50.17;99573.05;1797949;80;21120;-78
2022/08/22 02:42:32;;;;;;;134.10;15.65;;;;;;;20.60;50.07;99570.83;1797822;80;21272;-79
2022/08/22 02:45:54;;;;;;;110.35;15.15;;;;;;;20.62;49.96;99574.20;1796832;80;21205;-79
2022/08/22 02:49:17;;;;;;;162.18;19.05;;;;;;;20.45;50.61;99577.01;1796572;80;21720;-77
2022/08/22 02:52:50;;;;;;;148.57;17.50;;;;;;;20.64;50.28;99571.44;1771916;80;21189;-77
2022/08/22 02:56:25;;;;;;;159.52;16.95;;;;;;;20.48;50.72;99570.14;1796743;80;21216;-80
2022/08/22 03:00:01;;;;;;;125.70;14.83;;;;;;;20.70;50.25;99569.55;1797915;80;21750;-78
2022/08/22 03:03:24;;;;;;;145.32;17.00;;;;;;;20.60;50.44;99569.44;1797731;80;21208;-78
2022/08/22 03:06:46;;;;;;;122.35;16.17;;;;;;;20.60;50.34;99573.61;1797994;80;21158;-78
2022/08/22 03:09:59;;;;;;;166.40;18.30;;;;;;;20.45;50.91;99577.56;1775564;80;21161;-78
2022/08/22 03:13:21;;;;;;;146.22;16.65;;;;;;;20.65;50.63;99577.30;1797867;80;21221;-78
2022/08/22 03:16:57;;;;;;;112.57;16.62;;;;;;;20.55;50.49;99586.05;1792858;80;21236;-78
2022/08/22 03:20:08;;;;;;;118.53;15.55;;;;;;;20.58;50.66;99587.77;1795457;80;21150;-79
2022/08/22 03:23:45;;;;;;;151.32;16.23;;;;;;;20.59;50.79;99587.21;1795350;80;21177;-78
2022/08/22 03:27:07;;;;;;;129.82;15.90;;;;;;;20.71;50.04;99584.31;1794358;80;21264;-79
2022/08/22 03:30:43;;;;;;;163.60;17.82;;;;;;;20.63;50.67;99593.94;1795402;80;21193;-78
2022/08/22 03:33:50;;;;;;;172.98;17.23;;;;;;;20.65;50.77;99589.81;1777732;80;21165;-78
2022/08/22 03:37:24;;;;;;;121.60;16.17;;;;;;;20.68;50.47;99593.44;1795197;80;21180;-78
2022/08/22 03:41:00;;;;;;;123.62;16.17;;;;;;;20.61;50.44;99596.14;1795177;80;21169;-77
2022/08/22 03:44:34;;;;;;;127.72;15.68;;;;;;;20.53;51.35;99598.82;1793883;80;21177;-78
2022/08/22 03:48:21;;;;;;;121.15;15.03;;;;;;;20.73;51.04;99608.50;1795322;80;21173;-78
2022/08/22 03:51:48;;;;;;;127.12;15.88;;;;;;;20.78;50.87;99608.55;1794088;80;21225;-77
2022/08/22 03:55:28;;;;;;;117.55;14.63;;;;;;;20.63;51.62;99611.99;1795257;80;21176;-78
2022/08/22 03:59:17;;;;;;;120.82;15.63;;;;;;;20.71;51.58;99605.98;1795663;80;21177;-78
2022/08/22 04:02:57;;;;;;;116.62;14.93;;;;;;;20.55;51.52;99609.11;1795371;80;21713;-78
2022/08/22 04:06:21;;;;;;;;;;;;;;;20.62;51.75;99606.16;1798642;80;21260;-78
2022/08/22 04:10:05;;;;;;;120.57;14.23;;;;;;;20.69;51.57;99619.28;1795244;80;20225;-78
2022/08/22 04:13:47;;;;;;;107.47;14.05;;;;;;;20.75;51.58;99614.09;1793940;80;21252;-78
2022/08/22 04:17:13;;;;;;;104.90;13.43;;;;;;;20.85;51.17;99620.33;1793930;80;21217;-79
2022/08/22 04:20:58;;;;;;;101.18;13.08;;;;;;;20.79;51.13;99628.29;1795312;80;21220;-78
2022/08/22 04:24:40;;;;;;;91.87;13.88;;;;;;;20.86;51.00;99627.55;1796347;80;21129;-78
2022/08/22 04:28:21;;;;;;;122.25;17.32;;;;;;;20.95;51.15;99621.83;1794334;80;21327;-79
2022/08/22 04:31:37;;;;;;;116.10;14.15;;;;;;;21.04;50.68;99620.25;1795279;80;21224;-79
2022/08/22 04:34:47;;;;;;;106.67;13.60;;;;;;;21.18;50.56;99620.13;1795313;80;21150;-78
2022/08/22 04:38:30;;;;;;;122.17;13.95;;;;;;;21.21;50.87;99622.08;1795245;80;21786;-78
2022/08/22 04:42:05;;;;;;;102.53;12.58;;;;;;;21.38;49.66;99629.24;1795314;80;21185;-78
2022/08/22 04:45:28;;;;;;;98.62;11.95;;;;;;;21.42;50.13;99629.56;1795300;80;21173;-77
2022/08/22 04:48:57;;;;;;;124.85;12.90;;;;;;;21.49;49.90;99637.13;1795523;80;21180;-77
2022/08/22 04:52:12;;;;;;;82.72;11.78;;;;;;;21.62;48.86;99638.08;1795275;80;21771;-77
2022/08/22 04:55:54;;;;;;;104.60;12.95;;;;;;;21.59;49.24;99644.16;1793911;80;21182;-77
2022/08/22 04:59:15;;;;;;;80.90;13.28;;;;;;;21.71;48.28;99648.73;1795255;80;21182;-77
2022/08/22 05:02:27;;;;;;;75.65;10.03;;;;;;;21.52;48.83;99647.73;1795409;80;21703;-77
2022/08/22 05:05:38;;;;;;;63.10;9.95;;;;;;;21.59;48.82;99644.16;1795319;80;21177;-77
2022/08/22 05:08:45;;;;;;;99.90;12.60;;;;;;;21.63;48.74;99646.71;1795177;80;21279;-77
2022/08/22 05:11:51;;;;;;;89.15;9.90;;;;;;;21.76;48.72;99653.78;1802979;78;21521;-77
2022/08/22 05:15:00;;;;;;;72.50;10.65;;;;;;;21.79;48.26;99646.86;1797065;79;21159;-77
2022/08/22 05:18:16;;;;;;;93.90;10.50;;;;;;;21.91;48.44;99646.94;1794065;78;21197;-77
2022/08/22 05:21:24;;;;;;;110.12;13.00;;;;;;;21.95;48.73;99650.03;1797172;78;21137;-77
2022/08/22 05:24:38;;;;;;;58.05;8.48;;;;;;;21.97;48.78;99645.02;1801218;79;21169;-77
2022/08/22 05:27:54;;;;;;;71.50;10.58;;;;;;;22.08;48.54;99646.80;1794184;78;21234;-77
2022/08/22 05:30:59;;;;;;;67.03;9.58;;;;;;;22.05;48.08;99644.53;1790799;80;21543;-77
2022/08/22 05:34:10;;;;;;;82.57;9.48;;;;;;;21.97;48.63;99646.97;1789956;80;21187;-77
2022/08/22 05:37:28;;;;;;;72.05;9.95;;;;;;;22.00;48.73;99644.50;1793672;78;21919;-78
2022/08/22 05:40:36;;;;;;;71.17;8.60;;;;;;;22.11;49.56;99654.66;1799625;79;21181;-79
2022/08/22 05:43:47;;;;;;;65.75;8.78;;;;;;;22.21;49.02;99646.92;1799536;78;21158;-78
2022/08/22 05:47:09;;;;;;;76.02;9.15;;;;;;;22.41;49.49;99648.98;1783673;78;21106;-79
2022/08/22 05:50:21;;;;;;;54.38;8.90;;;;;;;22.35;49.97;99644.50;1798482;78;22632;-79
2022/08/22 05:53:36;;;;;;;62.27;8.15;;;;;;;22.57;48.83;99650.72;1796134;78;21475;-79
2022/08/22 05:56:46;;;;;;;63.85;8.43;;;;;;;22.68;48.43;99648.84;1793140;78;21165;-79
2022/08/22 05:59:52;;;;;;;70.60;8.63;;;;;;;22.85;47.85;99658.37;1801855;78;21177;-79
2022/08/22 06:03:25;;;;;;;72.50;9.73;;;;;;;22.84;48.16;99669.25;1792324;78;21744;-79
2022/08/22 06:06:42;;;;;;;64.50;8.15;;;;;;;22.90;47.08;99652.84;1770976;78;21236;-81
2022/08/22 06:10:07;;;;;;;56.80;8.03;;;;;;;22.81;47.34;99651.66;1794275;78;21232;-78
2022/08/22 06:13:28;;;;;;;57.15;7.70;;;;;;;22.77;47.85;99654.70;1789749;78;21208;-79
2022/08/22 06:16:45;;;;;;;58.90;8.45;;;;;;;22.59;48.70;99665.24;1791677;78;21177;-79
2022/08/22 06:19:56;;;;;;;61.68;8.33;;;;;;;22.68;48.68;99654.42;1793556;78;21147;-79
2022/08/22 06:23:05;;;;;;;60.38;7.75;;;;;;;22.80;49.23;99653.62;1792237;78;21146;-78
2022/08/22 06:26:11;;;;;;;69.07;9.00;;;;;;;22.99;48.42;99654.00;1797626;78;21749;-79
2022/08/22 06:29:19;;;;;;;61.90;8.40;;;;;;;22.93;47.92;99646.17;1790343;78;21130;-80
2022/08/22 06:32:47;;;;;;;56.65;6.50;;;;;;;23.04;48.93;99644.81;1797463;78;21562;-79
2022/08/22 06:39:34;;;;;;;79.05;8.90;;;;;;;22.87;49.15;99648.64;1795232;78;21798;-79
2022/08/22 06:42:42;;;;;;;41.18;7.70;;;;;;;22.95;48.91;99653.70;1793886;78;21208;-79
2022/08/22 06:45:48;;;;;;;55.67;7.78;;;;;;;23.01;48.56;99650.39;1794911;78;21788;-79
2022/08/22 06:48:54;;;;;;;62.75;7.35;;;;;;;22.96;49.09;99662.93;1791566;78;21194;-79
2022/08/22 06:52:06;;;;;;;67.58;7.72;;;;;;;23.05;50.05;99665.44;1793699;79;21190;-79
2022/08/22 06:55:13;;;;;;;43.85;7.03;;;;;;;23.19;48.58;99667.98;1781901;78;21145;-79
2022/08/22 06:58:29;;;;;;;46.53;6.53;;;;;;;23.32;49.59;99670.82;1726202;82;21181;-78
2022/08/22 07:01:56;;;;;;;58.33;8.30;;;;;;;23.45;48.12;99679.22;1758310;78;22232;-78
2022/08/22 07:05:01;;;;;;;54.27;7.72;;;;;;;23.51;48.51;99674.48;1798943;78;21176;-78
2022/08/22 07:08:08;;;;;;;49.63;7.12;;;;;;;23.26;48.78;99675.28;1788754;78;21221;-78
2022/08/22 07:11:24;;;;;;;54.45;6.40;;;;;;;23.20;49.77;99677.22;1777492;78;21827;-79
2022/08/22 07:14:49;;;;;;;55.90;7.40;;;;;;;23.33;50.19;99681.42;1794306;78;21185;-79
2022/08/22 07:17:57;;;;;;;58.52;6.85;;;;;;;23.39;49.25;99676.98;1818333;78;21197;-78
2022/08/22 07:21:07;;;;;;;40.75;6.60;;;;;;;23.39;50.15;99677.55;1789493;80;21126;-78
2022/08/22 07:24:12;;;;;;;41.18;6.22;;;;;;;23.25;49.58;99679.19;1790707;80;21170;-79
2022/08/22 07:27:29;;;;;;;45.88;6.45;;;;;;;23.38;50.66;99677.25;1808547;78;21169;-78
2022/08/22 07:31:04;;;;;;;45.12;5.85;;;;;;;23.46;50.68;99680.33;1729949;82;21170;-78
2022/08/22 07:34:52;;;;;;;48.15;6.22;;;;;;;23.57;49.83;99685.40;1723895;82;21235;-78
2022/08/22 07:38:22;;;;;;;63.13;6.75;;;;;;;23.48;48.93;99682.87;1709522;81;21170;-79
2022/08/22 07:41:30;;;;;;;50.67;7.00;;;;;;;23.54;50.09;99678.96;1707466;83;21250;-78
2022/08/22 07:44:43;;;;;;;48.80;6.83;;;;;;;23.77;49.87;99679.58;1732254;81;21230;-78
2022/08/22 07:48:00;;;;;;;38.10;6.47;;;;;;;23.95;49.47;99679.03;1745415;81;21454;-78
2022/08/22 07:51:17;;;;;;;43.05;5.53;;;;;;;23.97;48.48;99683.76;1743663;82;21213;-78
2022/08/22 07:54:40;;;;;;;49.55;6.95;;;;;;;23.64;49.38;99692.12;1743291;82;21261;-79
2022/08/22 07:57:48;;;;;;;59.30;6.67;;;;;;;23.77;48.88;99687.39;1760926;80;21230;-79
2022/08/22 08:00:53;;;;;;;48.63;5.12;;;;;;;23.69;50.95;99680.40;1738626;80;21220;-79
2022/08/22 08:04:06;;;;;;;63.15;8.53;;;;;;;23.91;49.84;99684.89;1739632;81;22393;-79
2022/08/22 08:07:14;;;;;;;28.80;5.08;;;;;;;24.03;49.27;99688.22;1736385;82;21792;-78
2022/08/22 08:10:24;;;;;;;61.08;6.97;;;;;;;24.15;49.30;99683.19;1756369;80;21865;-79
2022/08/22 08:13:43;;;;;;;45.58;5.60;;;;;;;24.38;48.34;99689.34;1736311;80;21510;-79
2022/08/22 08:17:04;;;;;;;39.35;6.22;;;;;;;24.35;48.77;99692.66;1716262;82;21215;-79
2022/08/22 08:20:19;;;;;;;45.23;5.97;;;;;;;24.39;49.32;99694.64;1733737;81;21217;-78
2022/08/22 08:23:24;;;;;;;68.78;6.22;;;;;;;24.59;49.14;99690.95;1802704;78;21299;-79
2022/08/22 08:28:32;;;;;;;40.40;4.97;;;;;;;24.76;47.90;99698.19;1801897;78;21178;-79
2022/08/22 08:30:01;;;;;;;57.58;5.78;;;;;;;24.95;46.70;99693.64;1787624;78;21224;-78
2022/08/22 08:33:07;;;;;;;38.10;5.30;;;;;;;24.88;48.01;99693.09;1788924;78;21193;-79
2022/08/22 08:36:41;;;;;;;46.00;4.95;;;;;;;24.83;46.67;99700.11;1792183;78;21244;-79
2022/08/22 08:39:56;;;;;;;36.25;5.70;;;;;;;24.72;48.14;99699.31;1807525;77;21183;-79
2022/08/22 08:43:28;;;;;;;46.75;6.25;;;;;;;24.63;48.89;99686.48;1788406;78;21175;-78
2022/08/22 08:47:14;;;;;;;50.60;6.05;;;;;;;24.58;49.68;99680.91;1796793;78;21133;-78
2022/08/22 08:51:04;;;;;;;52.50;6.00;;;;;;;24.67;48.05;99683.39;1796563;78;21193;-79
2022/08/22 08:54:44;;;;;;;45.03;5.08;;;;;;;24.58;48.23;99671.12;1789938;78;21197;-79
2022/08/22 08:58:16;;;;;;;50.55;6.92;;;;;;;24.80;48.45;99668.54;1798317;78;21168;-79
2022/08/22 09:01:29;;;;;;;50.50;4.83;;;;;;;24.83;48.83;99672.14;1801218;78;21215;-79
2022/08/22 09:04:41;;;;;;;47.05;5.70;;;;;;;24.93;49.83;99667.90;1799071;78;21347;-78
2022/08/22 09:08:20;;;;;;;49.95;6.58;;;;;;;25.21;48.86;99687.38;1801937;78;21230;-79
2022/08/22 09:11:29;;;;;;;50.65;5.22;;;;;;;25.33;47.82;99680.89;1801418;77;21166;-79
2022/08/22 09:15:19;;;;;;;60.40;6.72;;;;;;;25.43;47.98;99676.62;1791689;77;21217;-79
2022/08/22 09:18:32;;;;;;;51.15;5.15;;;;;;;25.59;48.66;99674.54;1794195;77;21138;-79
2022/08/22 09:22:00;;;;;;;45.83;5.50;;;;;;;25.76;47.81;99662.14;1799917;78;21241;-78
2022/08/22 09:25:36;;;;;;;45.00;4.78;;;;;;;25.94;47.15;99669.84;1732435;80;21161;-79
2022/08/22 09:29:00;;;;;;;49.77;6.80;;;;;;;25.88;47.37;99666.81;1746571;81;21158;-78
2022/08/22 09:32:01;;;;;;;59.75;6.30;;;;;;;25.91;49.11;99669.02;1733987;82;21184;-78
2022/08/22 09:35:27;;;;;;;48.75;5.97;;;;;;;26.10;47.59;99675.56;1737689;80;21760;-79
2022/08/22 09:38:50;;;;;;;36.30;6.12;;;;;;;26.16;47.07;99674.41;1748598;80;21179;-79
2022/08/22 09:42:19;;;;;;;51.28;5.75;;;;;;;26.13;46.72;99669.38;1758459;79;21835;-79
2022/08/22 09:45:45;;;;;;;53.68;6.17;;;;;;;26.02;46.52;99670.61;1750279;80;21237;-79
2022/08/22 09:49:25;;;;;;;54.73;5.33;;;;;;;25.97;48.42;99667.83;1749584;79;21217;-78
2022/08/22 09:52:38;;;;;;;48.27;5.83;;;;;;;26.08;47.96;99667.20;1749143;80;21470;-78
2022/08/22 09:55:57;;;;;;;49.60;5.22;;;;;;;26.40;47.69;99672.20;1727778;81;21201;-78
2022/08/22 09:59:18;;;;;;;51.45;5.50;;;;;;;26.49;46.83;99677.47;1734740;82;21221;-79
2022/08/22 10:02:44;;;;;;;52.20;5.17;;;;;;;26.61;47.49;99682.08;1747371;81;21196;-79
2022/08/22 10:06:08;;;;;;;49.27;5.12;;;;;;;26.76;45.75;99674.89;1750008;81;21208;-79
2022/08/22 10:09:27;;;;;;;37.23;4.83;;;;;;;26.78;46.25;99679.39;1738122;81;22253;-79
2022/08/22 10:12:38;;;;;;;56.48;5.22;;;;;;;26.87;46.32;99673.39;1745591;81;21257;-78
2022/08/22 10:15:53;;;;;;;44.05;5.37;;;;;;;26.76;46.51;99680.50;1742850;81;21297;-79
2022/08/22 10:19:06;;;;;;;45.85;4.97;;;;;;;26.99;46.84;99666.75;1736820;81;21229;-79
2022/08/22 10:22:47;;;;;;;42.25;4.67;;;;;;;27.15;47.79;99668.27;1737015;82;21205;-79
2022/08/22 10:26:00;;;;;;;30.72;4.45;;;;;;;27.31;45.76;99677.30;1786569;77;21165;-78
2022/08/22 10:29:34;;;;;;;39.10;4.47;;;;;;;27.26;45.56;99675.41;1788118;79;21859;-79
2022/08/22 10:32:57;;;;;;;33.50;4.28;;;;;;;27.23;45.52;99683.59;1797331;78;21354;-78
2022/08/22 10:36:26;;;;;;;35.45;3.90;;;;;;;27.10;45.34;99685.19;1726907;80;21157;-79
2022/08/22 10:39:46;;;;;;;28.12;3.40;;;;;;;27.09;45.30;99684.06;1792609;77;22149;-79
2022/08/22 10:42:58;;;;;;;27.32;4.05;;;;;;;27.12;46.25;99675.88;1795482;78;21217;-78
2022/08/22 10:46:29;;;;;;;17.90;3.17;;;;;;;27.19;46.92;99681.11;1795101;78;21205;-79
2022/08/22 10:50:02;;;;;;;;;;;;;;;27.52;44.71;99680.64;1796932;77;21519;-78
2022/08/22 10:53:32;;;;;;;15.35;2.95;;;;;;;27.40;45.83;99681.10;1802628;78;20221;-79
2022/08/22 10:57:13;;;;;;;23.95;3.22;;;;;;;27.43;45.53;99683.31;1807621;77;22154;-79
2022/08/22 11:00:53;;;;;;;17.50;3.08;;;;;;;27.41;45.25;99681.36;1810443;78;21193;-79
2022/08/22 11:04:26;;;;;;;39.42;4.35;;;;;;;27.49;45.09;99671.44;1733110;81;21315;-79
2022/08/22 11:08:11;;;;;;;19.12;2.77;;;;;;;27.58;44.93;99676.63;1739157;81;21276;-79
2022/08/22 11:11:40;;;;;;;28.98;3.35;;;;;;;27.71;44.94;99669.39;1741054;81;21218;-80
2022/08/22 11:15:09;;;;;;;20.75;3.17;;;;;;;27.75;43.92;99669.91;1796623;78;21186;-79
2022/08/22 11:18:49;;;;;;;19.05;3.12;;;;;;;27.86;43.21;99656.55;1738701;82;21729;-79
2022/08/22 11:22:15;;;;;;;29.67;3.35;;;;;;;28.07;45.44;99664.05;1719717;81;21206;-80
2022/08/22 11:25:51;;;;;;;26.27;4.47;;;;;;;28.27;42.70;99665.07;1734192;81;21253;-79
2022/08/22 11:29:28;;;;;;;22.95;3.33;;;;;;;28.13;43.66;99662.80;1792099;78;21150;-78
2022/08/22 11:33:19;;;;;;;16.65;3.90;;;;;;;28.33;41.81;99663.60;1817010;78;21169;-79
2022/08/22 11:36:30;;;;;;;20.25;3.77;;;;;;;28.69;41.16;99658.13;1811504;78;21192;-79
2022/08/22 11:39:57;;;;;;;30.80;4.87;;;;;;;29.03;40.46;99654.35;1808830;78;21299;-78
2022/08/22 11:43:37;;;;;;;22.22;3.30;;;;;;;29.27;38.88;99654.09;1743549;81;21454;-78
2022/08/22 11:46:55;;;;;;;36.75;3.65;;;;;;;29.64;38.61;99652.14;1799485;79;21177;-79
2022/08/22 11:50:14;;;;;;;32.05;4.20;;;;;;;29.71;38.61;99651.11;1805351;78;21220;-78
2022/08/22 11:53:47;;;;;;;28.73;4.08;;;;;;;29.90;37.52;99667.00;1744797;81;21193;-79
2022/08/22 11:57:00;;;;;;;24.30;3.87;;;;;;;29.48;38.71;99645.99;1745887;81;21225;-78
2022/08/22 12:00:37;;;;;;;29.02;3.17;;;;;;;29.37;38.55;99643.17;1736911;81;21221;-79
2022/08/22 12:04:16;;;;;;;24.15;4.28;;;;;;;29.47;39.03;99642.92;1745139;80;21244;-79
2022/08/22 12:07:45;;;;;;;22.55;2.92;;;;;;;29.33;37.62;99637.91;1751917;81;21464;-78
2022/08/22 12:10:56;;;;;;;24.70;3.08;;;;;;;29.33;37.62;99637.91;1770076;80;22182;-78
2022/08/22 12:14:32;;;;;;;25.10;3.42;;;;;;;29.26;38.48;99645.37;1715599;81;21173;-78
2022/08/22 12:18:16;;;;;;;30.72;4.00;;;;;;;29.40;38.32;99648.73;1813633;78;21177;-78
2022/08/22 12:21:48;;;;;;;21.77;3.80;;;;;;;29.28;37.76;99638.03;1808556;78;21184;-79
2022/08/22 12:25:18;;;;;;;22.25;3.42;;;;;;;29.34;37.87;99637.33;1774741;78;21185;-79
2022/08/22 12:28:57;;;;;;;20.52;2.92;;;;;;;29.36;37.55;99639.24;1785708;78;21224;-79
2022/08/22 12:32:32;;;;;;;23.52;2.85;;;;;;;29.49;37.46;99645.41;1797602;78;21239;-78
2022/08/22 12:36:13;;;;;;;37.00;4.08;;;;;;;30.01;35.28;99655.71;1797377;78;21167;-78
2022/08/22 12:39:44;;;;;;;22.60;4.00;;;;;;;30.01;35.28;99655.71;1797992;78;21217;-79
2022/08/22 12:43:06;;;;;;;27.40;4.72;;;;;;;29.73;36.30;99660.06;1804891;78;21153;-79
2022/08/22 12:46:26;;;;;;;30.60;5.28;;;;;;;29.81;36.14;99669.75;1741649;81;22296;-78
2022/08/22 12:50:03;;;;;;;26.82;4.83;;;;;;;29.78;37.08;99659.97;1718359;81;21183;-79
2022/08/22 12:53:22;;;;;;;20.02;4.47;;;;;;;29.97;37.76;99684.28;1765670;80;21202;-78
2022/08/22 12:56:50;;;;;;;29.25;4.50;;;;;;;29.97;37.76;99684.28;1744704;80;21186;-79
2022/08/22 12:59:56;;;;;;;22.10;3.87;;;;;;;29.92;37.33;99683.00;1723541;81;21221;-78
2022/08/22 13:03:01;;;;;;;25.20;3.55;;;;;;;29.96;36.08;99680.64;1749143;81;21247;-78
2022/08/22 13:06:14;;;;;;;22.80;3.85;;;;;;;30.17;35.14;99675.94;1752323;80;22200;-79
2022/08/22 13:09:36;;;;;;;32.17;4.28;;;;;;;30.11;34.39;99683.64;1741803;80;21827;-79
2022/08/22 13:12:48;;;;;;;32.20;3.85;;;;;;;29.78;35.35;99682.52;1743980;80;21566;-79
2022/08/22 13:16:01;;;;;;;25.20;4.00;;;;;;;29.92;34.74;99678.20;1744027;80;21179;-79
2022/08/22 13:19:13;;;;;;;19.52;4.25;;;;;;;29.91;34.58;99672.89;1749434;80;21237;-78
2022/08/22 13:22:24;;;;;;;25.52;3.25;;;;;;;30.10;33.20;99683.39;1742324;82;21252;-78
2022/08/22 13:25:32;;;;;;;17.73;3.80;;;;;;;30.15;34.22;99680.47;1735111;81;21276;-78
2022/08/22 13:28:39;;;;;;;21.82;3.45;;;;;;;30.27;33.97;99675.08;1787611;80;21194;-78
2022/08/22 13:31:46;;;;;;;33.23;4.60;;;;;;;30.26;34.16;99672.02;1758127;81;21178;-78
2022/08/22 13:34:56;;;;;;;18.95;3.35;;;;;;;30.54;34.59;99681.70;1736780;81;22096;-78
2022/08/22 13:38:06;;;;;;;27.22;3.87;;;;;;;30.63;34.30;99676.94;1742677;80;21217;-78
2022/08/22 13:41:12;;;;;;;25.27;4.03;;;;;;;30.31;33.92;99674.45;1744965;82;21132;-78
2022/08/22 13:44:25;;;;;;;21.27;3.08;;;;;;;30.27;34.44;99677.07;1736661;81;21182;-78
2022/08/22 13:47:36;;;;;;;20.85;2.77;;;;;;;30.35;34.71;99676.30;1754673;80;21744;-78
2022/08/22 13:50:38;;;;;;;26.55;3.30;;;;;;;30.20;33.20;99672.45;1768775;80;21864;-79
2022/08/22 13:53:58;;;;;;;36.45;3.30;;;;;;;30.34;32.57;99675.19;1749415;80;21739;-79
2022/08/22 13:57:31;;;;;;;24.98;4.17;;;;;;;30.32;32.50;99674.70;1746425;80;21194;-79
2022/08/22 14:01:03;;;;;;;20.00;3.47;;;;;;;30.19;32.72;99677.84;1743124;82;21196;-78
2022/08/22 14:04:31;;;;;;;19.62;3.22;;;;;;;30.36;30.99;99669.50;1741792;81;21198;-79
2022/08/22 14:08:02;;;;;;;35.63;3.47;;;;;;;30.40;31.80;99670.52;1743317;82;21812;-79
2022/08/22 14:14:00;;;;;;;16.00;3.55;;;;;;;30.48;31.11;99665.47;1870902;76;28010;-76
2022/08/22 14:17:05;;;;;;;20.10;3.47;;;;;;;30.69;30.52;99680.45;1825681;77;21172;-76
2022/08/22 14:20:22;;;;;;;25.10;3.22;;;;;;;30.44;31.45;99674.91;1819200;77;21188;-79
2022/08/22 14:23:33;;;;;;;34.85;3.92;;;;;;;30.55;31.29;99669.26;1817638;77;21215;-78
2022/08/22 14:26:44;;;;;;;20.40;3.12;;;;;;;30.70;31.29;99667.41;1817448;77;21184;-78
2022/08/22 14:30:00;;;;;;;13.00;3.87;;;;;;;30.56;31.70;99677.97;1819061;77;21625;-78
2022/08/22 14:33:26;;;;;;;22.27;3.15;;;;;;;30.58;30.59;99661.53;1814230;79;21202;-78
2022/08/22 14:36:36;;;;;;;28.62;3.50;;;;;;;30.59;28.85;99663.22;1814137;79;22360;-78
2022/08/22 14:40:17;;;;;;;26.12;3.67;;;;;;;30.49;29.09;99656.45;1798553;79;21194;-78
2022/08/22 14:43:37;;;;;;;28.32;3.75;;;;;;;30.57;29.02;99655.64;1813801;79;21276;-78
2022/08/22 14:46:55;;;;;;;15.28;3.40;;;;;;;30.48;29.37;99654.77;1816433;79;21244;-78
2022/08/22 14:50:01;;;;;;;20.45;3.42;;;;;;;30.28;29.76;99648.53;1822784;78;21189;-78
2022/08/22 14:53:36;;;;;;;19.12;3.27;;;;;;;30.34;30.33;99651.21;1839188;78;21744;-78
2022/08/22 14:56:42;;;;;;;15.03;3.80;;;;;;;30.36;29.76;99648.92;1839633;78;21169;-78
2022/08/22 14:59:55;;;;;;;24.43;4.20;;;;;;;30.39;29.59;99649.66;1816827;78;21708;-78
2022/08/22 15:03:06;;;;;;;25.35;3.35;;;;;;;30.08;30.42;99657.52;1838876;78;21216;-78
2022/08/22 15:06:21;;;;;;;17.50;3.65;;;;;;;30.05;30.50;99653.34;1757012;81;21193;-78
2022/08/22 15:09:49;;;;;;;15.65;3.60;;;;;;;29.93;31.25;99653.69;1783990;80;21227;-78
2022/08/22 15:13:01;;;;;;;29.12;3.35;;;;;;;30.18;30.59;99653.05;1763678;81;21214;-78
2022/08/22 15:16:07;;;;;;;27.52;4.00;;;;;;;29.70;31.39;99657.91;1769895;81;21189;-78
2022/08/22 15:19:35;;;;;;;21.75;4.25;;;;;;;29.63;32.05;99653.27;1770016;81;21166;-78
2022/08/22 15:22:44;;;;;;;24.75;4.17;;;;;;;29.39;32.67;99654.11;1769805;81;21178;-77
2022/08/22 15:25:50;;;;;;;33.20;4.60;;;;;;;29.37;32.89;99657.83;1769228;81;21297;-78
2022/08/22 15:29:17;;;;;;;27.77;3.33;;;;;;;29.37;32.89;99657.83;1756757;81;21272;-78
2022/08/22 15:32:30;;;;;;;20.75;3.83;;;;;;;29.56;33.09;99655.72;1769291;81;21181;-78
2022/08/22 15:35:38;;;;;;;32.83;3.72;;;;;;;29.08;33.62;99656.77;1769492;81;21169;-78
2022/08/22 15:38:51;;;;;;;30.27;3.70;;;;;;;28.67;34.15;99658.45;1756020;81;21206;-78
2022/08/22 15:41:58;;;;;;;25.27;3.45;;;;;;;28.67;34.15;99658.45;1767904;81;21232;-79
2022/08/22 15:45:04;;;;;;;27.37;4.22;;;;;;;28.53;34.56;99660.42;1757411;81;21717;-79